Time;durP1;ratioP1;P1;durP2;ratioP2;P2;SDS_P1;SDS_P2;PMS_P1;PMS_P2;Temp;Humidity;BMP_temperature;BMP_pressure;BME280_temperature;BME280_humidity;BME280_pressure;Samples;Min_cycle;Max_cycle;Signal;HPM_P1;HPM_P2
2022/12/12 00:01:52;;;;;;;21.93;11.07;;;-2.90;99.90;;;;;;6188501;23;20593;-70
2022/12/12 00:04:19;;;;;;;25.57;11.57;;;-2.90;99.90;;;;;;6188534;23;20233;-69
2022/12/12 00:06:46;;;;;;;26.07;12.33;;;-2.80;99.90;;;;;;6213161;23;20601;-72
2022/12/12 00:09:13;;;;;;;23.37;11.77;;;-2.70;99.90;;;;;;6188721;23;20206;-70
2022/12/12 00:11:40;;;;;;;24.67;11.30;;;-2.80;99.90;;;;;;6188640;23;20213;-71
2022/12/12 00:14:07;;;;;;;26.03;11.93;;;-2.90;99.90;;;;;;6188511;23;20198;-72
2022/12/12 00:16:34;;;;;;;25.57;12.10;;;-2.80;99.90;;;;;;6188178;23;20198;-71
2022/12/12 00:19:01;;;;;;;25.47;12.10;;;-3.00;99.90;;;;;;6188941;23;20175;-72
2022/12/12 00:21:28;;;;;;;26.17;12.23;;;-2.90;99.90;;;;;;6188775;23;20544;-75
2022/12/12 00:23:56;;;;;;;26.53;12.00;;;-2.90;99.90;;;;;;6214961;23;20515;-73
2022/12/12 00:26:27;;;;;;;28.00;12.07;;;-2.80;99.90;;;;;;6188930;23;20536;-73
2022/12/12 00:28:56;;;;;;;25.60;12.03;;;-2.80;99.90;;;;;;6190315;23;20299;-73
2022/12/12 00:31:23;;;;;;;25.43;12.73;;;-2.80;99.90;;;;;;6217154;23;20584;-72
2022/12/12 00:33:50;;;;;;;25.10;12.23;;;-2.90;99.90;;;;;;6190318;23;20199;-73
2022/12/12 00:36:18;;;;;;;27.73;12.30;;;-2.90;99.90;;;;;;6216875;23;20197;-74
2022/12/12 00:38:46;;;;;;;26.77;12.23;;;-2.90;99.90;;;;;;6216735;23;20240;-75
2022/12/12 00:41:14;;;;;;;28.63;12.10;;;-3.00;99.90;;;;;;6190267;23;20500;-72
2022/12/12 00:43:41;;;;;;;25.53;11.53;;;-3.10;99.90;;;;;;6189172;23;20171;-74
2022/12/12 00:46:12;;;;;;;26.10;12.50;;;-3.00;99.90;;;;;;6189431;23;20169;-75
2022/12/12 00:48:39;;;;;;;24.33;12.00;;;-2.90;99.90;;;;;;6190008;23;20187;-75
2022/12/12 00:51:13;;;;;;;27.10;12.43;;;-2.80;99.90;;;;;;6216368;23;20205;-75
2022/12/12 00:53:40;;;;;;;24.30;11.70;;;-2.90;99.90;;;;;;6189840;23;20534;-82
2022/12/12 00:56:06;;;;;;;26.00;12.50;;;-2.80;99.90;;;;;;6165317;23;20202;-81
2022/12/12 01:01:51;;;;;;;26.83;12.23;;;-2.80;99.90;;;;;;6120917;23;20575;-75
2022/12/12 01:04:18;;;;;;;26.80;12.53;;;-2.90;99.90;;;;;;6099528;23;20177;-75
2022/12/12 01:06:48;;;;;;;31.33;12.73;;;-2.90;99.90;;;;;;6099197;23;20184;-75
2022/12/12 01:09:15;;;;;;;26.97;12.77;;;-2.90;99.90;;;;;;6100213;23;20307;-75
2022/12/12 01:11:50;;;;;;;27.67;12.50;;;-3.10;99.90;;;;;;6100656;23;20179;-75
2022/12/12 01:14:21;;;;;;;30.33;13.33;;;-3.00;99.90;;;;;;6077040;23;20260;-76
2022/12/12 01:16:49;;;;;;;25.93;12.13;;;-3.10;99.90;;;;;;6123961;23;20228;-75
2022/12/12 01:19:25;;;;;;;27.10;13.13;;;-3.00;99.90;;;;;;6100014;23;20185;-75
2022/12/12 01:21:58;;;;;;;26.63;13.13;;;-3.00;99.90;;;;;;6100059;23;20200;-75
2022/12/12 01:24:28;;;;;;;27.37;11.83;;;-3.10;99.90;;;;;;6100105;23;20268;-76
2022/12/12 01:26:55;;;;;;;27.57;12.80;;;-3.00;99.90;;;;;;6100166;23;20188;-76
2022/12/12 01:29:23;;;;;;;31.10;13.93;;;-3.10;99.90;;;;;;6100745;23;20264;-76
2022/12/12 01:32:20;;;;;;;33.03;13.90;;;-3.10;99.90;;;;;;6100035;23;20258;-75
2022/12/12 01:35:20;;;;;;;31.27;13.50;;;-3.00;99.90;;;;;;6124229;23;20285;-76
2022/12/12 01:37:55;;;;;;;32.00;13.87;;;-3.00;99.90;;;;;;6082327;23;20176;-74
2022/12/12 01:40:30;;;;;;;30.73;13.73;;;-2.90;99.90;;;;;;6166625;23;20245;-76
2022/12/12 01:42:58;;;;;;;33.50;15.17;;;-3.00;99.90;;;;;;6165119;23;20176;-75
2022/12/12 01:45:57;;;;;;;36.13;14.83;;;-3.10;99.90;;;;;;6216463;23;20171;-76
2022/12/12 01:49:05;;;;;;;33.37;14.93;;;-3.10;99.90;;;;;;6168648;23;20178;-77
2022/12/12 01:51:36;;;;;;;32.67;14.10;;;-2.90;99.90;;;;;;6166006;23;20175;-76
2022/12/12 01:54:29;;;;;;;30.87;14.40;;;-2.90;99.90;;;;;;6189043;23;20197;-76
2022/12/12 01:56:59;;;;;;;30.67;14.07;;;-2.90;99.90;;;;;;6189499;23;20656;-76
2022/12/12 01:59:35;;;;;;;32.47;14.73;;;-2.80;99.90;;;;;;6165112;23;20432;-76
2022/12/12 02:02:26;;;;;;;33.83;13.97;;;-2.70;99.90;;;;;;6165813;23;20171;-74
2022/12/12 02:08:31;;;;;;;29.87;13.47;;;-2.80;99.90;;;;;;6189388;23;20503;-75
2022/12/12 02:11:00;;;;;;;27.30;13.30;;;-2.70;99.90;;;;;;6164525;23;20197;-75
2022/12/12 02:13:37;;;;;;;26.40;12.60;;;-2.70;99.90;;;;;;6166175;23;20163;-74
2022/12/12 02:16:42;;;;;;;28.80;13.33;;;-2.70;99.90;;;;;;6166636;23;20207;-76
2022/12/12 02:19:43;;;;;;;29.77;12.83;;;-2.70;99.90;;;;;;6164607;23;20172;-75
2022/12/12 02:22:43;;;;;;;25.67;12.07;;;-2.70;99.90;;;;;;6165237;23;20170;-75
2022/12/12 02:25:51;;;;;;;24.30;11.87;;;-2.90;99.90;;;;;;6188756;23;20167;-75
2022/12/12 02:28:59;;;;;;;26.23;12.00;;;-2.70;99.90;;;;;;6167047;23;20222;-75
2022/12/12 02:32:19;;;;;;;22.63;10.90;;;-2.70;99.90;;;;;;6189688;23;20168;-76
2022/12/12 02:35:11;;;;;;;22.43;10.67;;;-2.70;99.90;;;;;;6104470;23;20176;-75
2022/12/12 02:37:54;;;;;;;23.87;11.07;;;-2.70;99.90;;;;;;6105543;23;20181;-75
2022/12/12 02:40:31;;;;;;;21.17;10.53;;;-2.70;99.90;;;;;;6128878;23;20214;-75
2022/12/12 02:43:20;;;;;;;21.70;11.23;;;-2.80;99.90;;;;;;6105232;23;20606;-74
2022/12/12 02:45:59;;;;;;;23.20;10.87;;;-2.70;99.90;;;;;;6153433;23;20161;-76
2022/12/12 02:48:47;;;;;;;20.07;10.60;;;-2.60;99.90;;;;;;6128606;23;20172;-75
2022/12/12 02:51:17;;;;;;;20.60;10.33;;;-2.80;99.90;;;;;;6103197;23;20180;-76
2022/12/12 02:53:48;;;;;;;21.20;10.13;;;-2.80;99.90;;;;;;6152735;23;20556;-75
2022/12/12 02:56:42;;;;;;;19.30;9.93;;;-2.80;99.90;;;;;;6128511;23;20336;-75
2022/12/12 02:59:20;;;;;;;21.53;9.87;;;-2.80;99.90;;;;;;6153529;23;20220;-75
2022/12/12 03:02:00;;;;;;;18.83;9.43;;;-2.60;99.90;;;;;;6128505;23;20195;-76
2022/12/12 03:08:29;;;;;;;19.70;9.20;;;-2.60;99.90;;;;;;6152986;23;20496;-76
2022/12/12 03:10:58;;;;;;;19.47;9.27;;;-2.60;99.90;;;;;;6098868;23;20302;-75
2022/12/12 03:13:32;;;;;;;20.50;9.57;;;-2.60;99.90;;;;;;6099467;23;20554;-74
2022/12/12 03:16:44;;;;;;;17.20;8.17;;;-2.60;99.90;;;;;;6098549;23;20197;-75
2022/12/12 03:19:45;;;;;;;16.97;8.80;;;-2.60;99.90;;;;;;6123707;23;20170;-75
2022/12/12 03:22:47;;;;;;;16.13;8.30;;;-2.50;99.90;;;;;;6122170;23;20522;-76
2022/12/12 03:25:42;;;;;;;17.37;8.80;;;-2.40;99.90;;;;;;6120834;23;20646;-76
2022/12/12 03:28:27;;;;;;;18.33;8.90;;;-2.50;99.90;;;;;;6122966;23;20192;-77
2022/12/12 03:31:02;;;;;;;16.27;8.23;;;-2.50;99.90;;;;;;6099120;23;20576;-76
2022/12/12 03:33:54;;;;;;;16.50;8.87;;;-2.50;99.90;;;;;;6123631;23;20188;-77
2022/12/12 03:36:39;;;;;;;16.00;8.13;;;-2.60;99.90;;;;;;6120781;23;20177;-75
2022/12/12 03:39:13;;;;;;;19.57;8.47;;;-2.40;99.90;;;;;;6123163;23;20204;-77
2022/12/12 03:41:45;;;;;;;20.63;9.57;;;-2.50;99.90;;;;;;6098878;23;20607;-76
2022/12/12 03:44:31;;;;;;;20.17;10.37;;;-2.50;99.90;;;;;;6107580;23;20501;-76
2022/12/12 03:47:10;;;;;;;21.47;10.67;;;-2.40;99.90;;;;;;6131048;23;20179;-75
2022/12/12 03:49:53;;;;;;;24.87;12.07;;;-2.40;99.90;;;;;;6153807;23;20644;-76
2022/12/12 03:52:26;;;;;;;22.50;11.57;;;-2.50;99.90;;;;;;6153902;23;20173;-77
2022/12/12 03:55:07;;;;;;;26.50;11.40;;;-2.50;99.90;;;;;;6155596;23;20499;-77
2022/12/12 03:57:42;;;;;;;21.03;11.03;;;-2.50;99.90;;;;;;6188635;23;20196;-76
2022/12/12 04:00:13;;;;;;;23.83;11.27;;;-2.50;99.90;;;;;;6215254;23;20171;-77
2022/12/12 04:02:43;;;;;;;25.63;10.77;;;-2.60;99.90;;;;;;6190192;23;20174;-76
2022/12/12 04:05:27;;;;;;;19.63;10.30;;;-2.60;99.90;;;;;;6217038;23;20181;-78
2022/12/12 04:08:02;;;;;;;19.00;10.03;;;-2.60;99.90;;;;;;6217423;23;20487;-76
2022/12/12 04:13:56;;;;;;;19.03;9.90;;;-2.70;99.90;;;;;;6217393;23;20160;-77
2022/12/12 04:16:29;;;;;;;17.53;9.23;;;-2.70;99.90;;;;;;6190717;23;20202;-76
2022/12/12 04:18:59;;;;;;;18.33;9.60;;;-2.60;99.90;;;;;;6190344;23;20237;-76
2022/12/12 04:24:49;;;;;;;17.30;8.83;;;-2.50;99.90;;;;;;6190078;23;20257;-76
2022/12/12 04:27:28;;;;;;;17.30;9.10;;;-2.50;99.90;;;;;;6217416;23;20585;-74
2022/12/12 04:30:05;;;;;;;18.40;9.30;;;-2.60;99.90;;;;;;6190404;23;20218;-76
2022/12/12 04:32:44;;;;;;;18.80;9.33;;;-2.60;99.90;;;;;;6166395;23;20174;-77
2022/12/12 04:35:30;;;;;;;18.63;8.93;;;-2.60;99.90;;;;;;6165719;23;20174;-76
2022/12/12 04:38:02;;;;;;;19.60;9.57;;;-2.60;99.90;;;;;;6191005;23;20208;-77
2022/12/12 04:40:34;;;;;;;17.93;9.53;;;-2.60;99.90;;;;;;6190990;23;20159;-77
2022/12/12 04:43:11;;;;;;;18.93;9.57;;;-2.50;99.90;;;;;;6142749;23;20255;-77
2022/12/12 04:45:50;;;;;;;18.47;9.33;;;-2.50;99.90;;;;;;6190649;23;20167;-77
2022/12/12 04:48:22;;;;;;;19.23;9.93;;;-2.40;99.90;;;;;;6191045;23;20163;-76
2022/12/12 04:50:52;;;;;;;19.07;9.80;;;-2.40;99.90;;;;;;6190486;23;20183;-77
2022/12/12 04:53:37;;;;;;;19.33;9.43;;;-2.30;99.90;;;;;;6217189;23;20159;-77
2022/12/12 04:56:10;;;;;;;20.13;10.10;;;-2.30;99.90;;;;;;6168158;23;20986;-77
2022/12/12 04:58:39;;;;;;;21.60;9.90;;;-2.30;99.90;;;;;;6190776;23;20579;-77
2022/12/12 05:01:18;;;;;;;18.37;9.20;;;-2.30;99.90;;;;;;6217204;23;20604;-78
2022/12/12 05:03:59;;;;;;;22.30;10.27;;;-2.20;99.90;;;;;;6165814;23;20175;-78
2022/12/12 05:06:32;;;;;;;19.70;9.83;;;-2.20;99.90;;;;;;6189926;23;20171;-77
2022/12/12 05:09:00;;;;;;;20.97;9.80;;;-2.10;99.90;;;;;;6190030;23;20612;-78
2022/12/12 05:11:28;;;;;;;17.77;9.20;;;-2.10;99.90;;;;;;6216937;23;20273;-78
2022/12/12 05:13:55;;;;;;;20.13;9.73;;;-2.10;99.90;;;;;;6190365;23;20179;-77
2022/12/12 05:16:25;;;;;;;20.40;9.80;;;-2.20;99.90;;;;;;6190413;23;20264;-77
2022/12/12 05:18:52;;;;;;;19.77;9.70;;;-2.10;99.90;;;;;;6190493;23;20255;-78
2022/12/12 05:21:19;;;;;;;19.60;9.83;;;-2.00;99.90;;;;;;6189940;23;20181;-78
2022/12/12 05:23:46;;;;;;;19.03;9.30;;;-2.00;99.90;;;;;;6190508;23;20236;-78
2022/12/12 05:26:28;;;;;;;21.67;10.50;;;-2.00;99.90;;;;;;6165809;23;20176;-78
2022/12/12 05:28:56;;;;;;;20.30;9.83;;;-1.80;99.90;;;;;;6190528;23;20179;-77
2022/12/12 05:31:29;;;;;;;20.00;10.30;;;-1.90;99.90;;;;;;6190319;23;20730;-78
2022/12/12 05:33:56;;;;;;;22.00;10.93;;;-1.90;99.90;;;;;;6190505;23;20173;-77
2022/12/12 05:36:23;;;;;;;18.60;10.30;;;-1.70;99.90;;;;;;6189966;23;20239;-77
2022/12/12 05:38:50;;;;;;;23.00;10.63;;;-1.80;99.90;;;;;;6190401;23;20601;-77
2022/12/12 05:41:17;;;;;;;26.73;10.70;;;-1.80;99.90;;;;;;6190087;23;20179;-78
2022/12/12 05:43:44;;;;;;;25.60;12.07;;;-1.80;99.90;;;;;;6166163;23;20263;-77
2022/12/12 05:46:11;;;;;;;26.40;12.30;;;-1.70;99.90;;;;;;6165410;23;20169;-77
2022/12/12 05:48:38;;;;;;;22.43;11.53;;;-1.80;99.90;;;;;;6190071;23;20200;-78
2022/12/12 05:51:05;;;;;;;24.93;11.73;;;-1.70;99.90;;;;;;6189806;23;20194;-76
2022/12/12 05:53:32;;;;;;;27.60;12.37;;;-1.70;99.90;;;;;;6190234;23;20175;-77
2022/12/12 05:56:10;;;;;;;31.10;13.90;;;-1.70;99.90;;;;;;6192065;23;20373;-76
2022/12/12 05:58:38;;;;;;;28.27;13.20;;;-1.70;99.90;;;;;;6216905;23;20170;-77
2022/12/12 06:01:05;;;;;;;25.83;12.83;;;-1.70;99.90;;;;;;6190070;23;20172;-77
2022/12/12 06:03:33;;;;;;;33.20;14.40;;;-1.60;99.90;;;;;;6217140;23;20189;-75
2022/12/12 06:06:05;;;;;;;32.70;14.37;;;-1.60;99.90;;;;;;6215832;23;20152;-79
2022/12/12 06:08:32;;;;;;;30.30;13.43;;;-1.60;99.90;;;;;;6189618;23;20570;-77
2022/12/12 06:10:59;;;;;;;29.77;15.37;;;-1.60;99.90;;;;;;6190182;23;20273;-77
2022/12/12 06:13:26;;;;;;;31.10;14.40;;;-1.50;99.90;;;;;;6189902;23;20643;-76
2022/12/12 06:15:53;;;;;;;29.80;14.17;;;-1.50;99.90;;;;;;6189995;23;20479;-76
2022/12/12 06:18:20;;;;;;;30.17;14.03;;;-1.50;99.90;;;;;;6189564;23;20555;-77
2022/12/12 06:20:47;;;;;;;32.60;15.13;;;-1.50;99.90;;;;;;6165702;23;20179;-79
2022/12/12 06:23:14;;;;;;;33.63;15.27;;;-1.60;99.90;;;;;;6164652;23;20204;-79
2022/12/12 06:25:40;;;;;;;34.53;15.47;;;-1.50;99.90;;;;;;6189081;23;20196;-79
2022/12/12 06:28:07;;;;;;;29.17;14.60;;;-1.50;99.90;;;;;;6214784;23;20180;-78
2022/12/12 06:30:34;;;;;;;35.03;15.07;;;-1.50;99.90;;;;;;6189122;23;20203;-76
2022/12/12 06:33:01;;;;;;;35.57;15.00;;;-1.50;99.90;;;;;;6216499;23;20173;-76
2022/12/12 06:35:28;;;;;;;34.97;14.90;;;-1.40;99.90;;;;;;6189203;23;20170;-78
2022/12/12 06:37:55;;;;;;;34.63;14.67;;;-1.40;99.90;;;;;;6164652;23;20226;-77
2022/12/12 06:40:22;;;;;;;34.67;14.73;;;-1.30;99.90;;;;;;6189604;23;20187;-77
2022/12/12 06:42:49;;;;;;;34.03;15.30;;;-1.30;99.90;;;;;;6165061;23;20178;-77
2022/12/12 06:45:17;;;;;;;33.60;15.67;;;-1.30;99.90;;;;;;6164712;23;20172;-77
2022/12/12 06:47:44;;;;;;;32.47;13.73;;;-1.20;99.90;;;;;;6188855;23;20179;-77
2022/12/12 06:50:11;;;;;;;34.77;15.50;;;-1.30;99.90;;;;;;6164541;23;20291;-77
2022/12/12 06:52:38;;;;;;;30.63;14.43;;;-1.20;99.90;;;;;;6188914;23;20598;-76
2022/12/12 06:55:08;;;;;;;28.57;14.07;;;-1.20;99.90;;;;;;6189044;23;20175;-77
2022/12/12 06:57:35;;;;;;;28.00;14.23;;;-1.20;99.90;;;;;;6189617;23;20167;-78
2022/12/12 07:00:03;;;;;;;34.23;15.43;;;-1.20;99.90;;;;;;6215327;23;20219;-76
2022/12/12 07:02:30;;;;;;;30.17;14.77;;;-1.10;99.90;;;;;;6164013;23;20197;-77
2022/12/12 07:04:57;;;;;;;31.07;15.40;;;-1.10;99.90;;;;;;6189150;23;20176;-77
2022/12/12 07:07:25;;;;;;;35.10;14.83;;;-1.00;99.90;;;;;;6189428;23;20652;-77
2022/12/12 07:09:52;;;;;;;31.57;15.47;;;-1.00;99.90;;;;;;6165212;23;20467;-76
2022/12/12 07:12:19;;;;;;;33.77;15.33;;;-0.90;99.90;;;;;;6165010;23;20465;-77
2022/12/12 07:14:49;;;;;;;31.27;15.27;;;-1.00;99.90;;;;;;6189057;23;20185;-77
2022/12/12 07:17:16;;;;;;;30.87;15.30;;;-1.00;99.90;;;;;;6188345;23;20203;-77
2022/12/12 07:19:43;;;;;;;32.60;14.80;;;-0.90;99.90;;;;;;6164057;23;20165;-78
2022/12/12 07:22:10;;;;;;;30.73;15.17;;;-0.90;99.90;;;;;;6185472;23;20452;-77
2022/12/12 07:24:38;;;;;;;30.87;14.47;;;-0.90;99.90;;;;;;6165176;23;20255;-77
2022/12/12 07:27:05;;;;;;;36.73;15.87;;;-0.80;99.90;;;;;;6215327;23;20183;-77
2022/12/12 07:29:32;;;;;;;29.80;15.27;;;-1.00;99.90;;;;;;6215606;23;20503;-76
2022/12/12 07:31:59;;;;;;;30.10;14.60;;;-0.80;99.90;;;;;;6188680;23;20286;-75
2022/12/12 07:34:30;;;;;;;30.60;14.63;;;-1.00;99.90;;;;;;6215140;23;20215;-77
2022/12/12 07:36:57;;;;;;;32.37;15.73;;;-0.90;99.90;;;;;;6215356;23;20182;-75
2022/12/12 07:39:33;;;;;;;29.27;13.63;;;-0.90;99.90;;;;;;6188938;23;20167;-75
2022/12/12 07:42:00;;;;;;;28.77;14.63;;;-0.80;99.90;;;;;;6188375;23;20173;-78
2022/12/12 07:44:27;;;;;;;32.43;15.40;;;-0.80;99.90;;;;;;6188534;23;20188;-76
2022/12/12 07:46:57;;;;;;;34.53;15.93;;;-0.60;99.90;;;;;;6189562;23;20261;-77
2022/12/12 07:49:26;;;;;;;36.43;16.40;;;-0.70;99.90;;;;;;6215115;23;20497;-74
2022/12/12 07:51:54;;;;;;;29.57;15.00;;;-0.80;99.90;;;;;;6188636;23;20279;-74
2022/12/12 07:54:21;;;;;;;29.83;15.30;;;-0.80;99.90;;;;;;6188828;23;20165;-77
2022/12/12 07:56:48;;;;;;;30.17;15.37;;;-0.70;99.90;;;;;;6188640;23;20207;-76
2022/12/12 07:59:16;;;;;;;34.37;16.33;;;-0.60;99.90;;;;;;6188941;23;20162;-75
2022/12/12 08:01:43;;;;;;;30.23;15.13;;;-0.50;99.90;;;;;;6188878;23;20181;-76
2022/12/12 08:04:10;;;;;;;29.73;15.10;;;-0.50;99.90;;;;;;6188342;23;20204;-76
2022/12/12 08:06:37;;;;;;;29.07;14.30;;;-0.60;99.90;;;;;;6188339;23;20272;-76
2022/12/12 08:09:04;;;;;;;27.23;14.77;;;-0.50;99.90;;;;;;6214877;23;20149;-77
2022/12/12 08:11:31;;;;;;;28.67;15.23;;;-0.50;99.90;;;;;;6163994;23;20505;-77
2022/12/12 08:13:58;;;;;;;28.37;13.87;;;-0.60;99.90;;;;;;6189370;23;20193;-76
2022/12/12 08:16:27;;;;;;;27.93;14.17;;;-0.50;99.90;;;;;;6163410;23;20210;-76
2022/12/12 08:18:55;;;;;;;27.17;14.50;;;-0.50;99.90;;;;;;6188934;23;20232;-76
2022/12/12 08:21:23;;;;;;;32.33;14.93;;;-0.40;99.90;;;;;;6189030;23;20160;-76
2022/12/12 08:24:01;;;;;;;32.20;14.97;;;-0.30;99.90;;;;;;6188673;23;20181;-75
2022/12/12 08:26:29;;;;;;;28.50;14.63;;;-0.30;99.90;;;;;;6163972;23;20174;-75
2022/12/12 08:28:56;;;;;;;30.87;14.70;;;-0.30;99.90;;;;;;6216033;23;20261;-75
2022/12/12 08:31:24;;;;;;;28.43;13.60;;;-0.40;99.90;;;;;;6164314;23;20622;-76
2022/12/12 08:33:54;;;;;;;25.63;14.43;;;-0.40;99.90;;;;;;6188997;23;20583;-75
2022/12/12 08:36:25;;;;;;;29.67;14.37;;;-0.30;99.90;;;;;;6188172;23;20596;-76
2022/12/12 08:38:52;;;;;;;31.87;14.80;;;-0.20;99.90;;;;;;6164682;23;20235;-77
2022/12/12 08:41:19;;;;;;;25.50;14.13;;;-0.20;99.90;;;;;;6188886;23;20181;-75
2022/12/12 08:43:47;;;;;;;29.27;13.70;;;-0.30;99.90;;;;;;6188856;23;20180;-75
2022/12/12 08:46:16;;;;;;;28.73;14.13;;;-0.20;99.90;;;;;;6188606;23;20200;-75
2022/12/12 08:48:45;;;;;;;27.43;13.60;;;-0.10;99.90;;;;;;6215532;23;20485;-75
2022/12/12 08:51:14;;;;;;;28.73;13.10;;;-0.10;99.90;;;;;;6190387;23;20214;-74
2022/12/12 08:53:50;;;;;;;26.33;13.57;;;-0.20;99.90;;;;;;6190455;23;20599;-75
2022/12/12 08:56:19;;;;;;;25.10;11.97;;;-0.10;99.90;;;;;;6189731;23;20220;-76
2022/12/12 08:58:46;;;;;;;25.90;12.50;;;-0.10;99.90;;;;;;6216714;23;20609;-75
2022/12/12 09:01:24;;;;;;;23.33;11.80;;;-0.10;99.90;;;;;;6190326;23;20189;-75
2022/12/12 09:03:55;;;;;;;21.17;11.93;;;-0.10;99.90;;;;;;6190781;23;20206;-75
2022/12/12 09:06:24;;;;;;;22.57;11.07;;;-0.10;99.90;;;;;;6189873;23;20606;-75
2022/12/12 09:08:51;;;;;;;22.60;11.73;;;0.00;99.90;;;;;;6190145;23;20171;-76
2022/12/12 09:11:18;;;;;;;25.77;10.77;;;0.00;99.90;;;;;;6190115;23;20201;-75
2022/12/12 09:13:45;;;;;;;19.87;10.87;;;0.00;99.90;;;;;;6216649;23;20214;-76
2022/12/12 09:16:13;;;;;;;23.07;11.57;;;0.10;99.90;;;;;;6189497;23;20272;-78
2022/12/12 09:18:40;;;;;;;20.30;10.63;;;0.20;99.90;;;;;;6164567;23;20180;-77
2022/12/12 09:21:14;;;;;;;19.23;10.80;;;0.10;99.90;;;;;;6167184;23;20712;-76
2022/12/12 09:23:41;;;;;;;18.83;9.67;;;0.10;99.90;;;;;;6190441;23;20268;-77
2022/12/12 09:26:12;;;;;;;22.47;10.10;;;0.20;99.90;;;;;;6190696;23;20182;-77
2022/12/12 09:28:39;;;;;;;15.47;9.30;;;0.30;99.90;;;;;;6190467;23;20213;-77
2022/12/12 09:31:08;;;;;;;20.10;9.77;;;0.40;99.90;;;;;;6190311;23;20636;-78
2022/12/12 09:33:35;;;;;;;17.47;9.47;;;0.40;99.90;;;;;;6214903;23;20171;-78
2022/12/12 09:36:05;;;;;;;18.50;9.30;;;0.40;99.90;;;;;;6216500;23;20545;-78
2022/12/12 09:38:33;;;;;;;18.43;9.23;;;0.30;99.90;;;;;;6190228;23;20194;-78
2022/12/12 09:41:02;;;;;;;18.30;9.47;;;0.30;99.90;;;;;;6190118;23;20202;-77
2022/12/12 09:43:36;;;;;;;18.97;9.87;;;0.40;99.90;;;;;;6189781;23;20170;-76
2022/12/12 09:46:14;;;;;;;21.67;9.37;;;0.50;99.90;;;;;;6189981;23;20199;-77
2022/12/12 09:48:44;;;;;;;18.37;8.97;;;0.50;99.90;;;;;;6165290;23;20195;-75
2022/12/12 09:51:12;;;;;;;17.17;8.83;;;0.50;99.90;;;;;;6189838;23;20201;-76
2022/12/12 09:53:42;;;;;;;22.57;8.67;;;0.50;99.90;;;;;;6189540;23;20620;-75
2022/12/12 09:56:20;;;;;;;19.00;9.50;;;0.40;99.90;;;;;;6189185;23;20196;-77
2022/12/12 09:58:58;;;;;;;15.77;8.47;;;0.50;99.90;;;;;;6189357;23;20173;-76
2022/12/12 10:01:33;;;;;;;21.27;9.40;;;0.40;99.90;;;;;;6189617;23;20565;-77
2022/12/12 10:04:20;;;;;;;17.53;9.17;;;0.40;99.90;;;;;;6189326;23;20172;-77
2022/12/12 10:06:58;;;;;;;20.17;9.40;;;0.30;99.90;;;;;;6216601;23;20178;-78
2022/12/12 10:09:47;;;;;;;19.97;8.57;;;0.30;99.90;;;;;;6189994;23;20167;-77
2022/12/12 10:12:15;;;;;;;18.97;8.20;;;0.40;99.90;;;;;;6189681;23;20205;-76
2022/12/12 10:14:46;;;;;;;19.07;9.00;;;0.50;99.90;;;;;;6189046;23;20166;-76
2022/12/12 10:17:38;;;;;;;16.37;8.53;;;0.50;99.90;;;;;;6189398;23;20258;-78
2022/12/12 10:20:21;;;;;;;15.77;7.80;;;0.50;99.90;;;;;;6188878;23;20177;-75
2022/12/12 10:22:59;;;;;;;16.87;7.57;;;0.50;99.90;;;;;;6189036;23;20182;-78
2022/12/12 10:25:39;;;;;;;17.33;8.23;;;0.50;99.90;;;;;;6216139;23;20159;-79
2022/12/12 10:28:15;;;;;;;15.50;7.50;;;0.60;99.90;;;;;;6215310;23;20248;-78
2022/12/12 10:31:01;;;;;;;16.43;8.07;;;0.60;99.90;;;;;;6188813;23;20253;-80
2022/12/12 10:33:55;;;;;;;14.60;7.70;;;0.60;99.90;;;;;;6215163;23;20169;-77
2022/12/12 10:36:53;;;;;;;16.57;7.97;;;0.60;99.90;;;;;;6216146;23;20170;-79
2022/12/12 10:39:36;;;;;;;12.43;7.40;;;0.70;99.90;;;;;;6188834;23;20487;-85
2022/12/12 10:42:03;;;;;;;12.23;6.63;;;0.70;99.90;;;;;;6189658;23;20172;-79
2022/12/12 10:44:48;;;;;;;12.17;6.67;;;0.80;99.90;;;;;;6188528;23;20264;-83
2022/12/12 10:47:15;;;;;;;12.63;6.57;;;0.70;99.90;;;;;;6187907;23;20655;-76
2022/12/12 10:49:42;;;;;;;14.97;7.27;;;0.70;99.90;;;;;;6188497;23;20189;-77
2022/12/12 10:52:20;;;;;;;12.90;6.60;;;0.80;99.90;;;;;;6188586;23;20200;-76
2022/12/12 10:54:54;;;;;;;13.13;6.47;;;1.00;99.90;;;;;;6188638;23;20589;-82
2022/12/12 10:57:24;;;;;;;11.13;6.23;;;0.90;99.90;;;;;;6189079;23;20175;-73
2022/12/12 10:59:53;;;;;;;14.97;7.00;;;1.00;99.90;;;;;;6190054;23;20246;-73
2022/12/12 11:02:36;;;;;;;13.17;6.20;;;1.00;99.90;;;;;;6189588;23;20175;-75
2022/12/12 11:05:07;;;;;;;11.37;5.60;;;1.00;99.90;;;;;;6213967;23;20174;-73
2022/12/12 11:08:01;;;;;;;12.60;6.33;;;1.00;99.90;;;;;;6189318;23;20167;-72
2022/12/12 11:10:34;;;;;;;11.43;5.80;;;1.00;99.90;;;;;;6181007;23;20183;-84
2022/12/12 11:13:15;;;;;;;9.73;5.63;;;0.90;99.90;;;;;;6188932;23;20198;-87
2022/12/12 11:16:06;;;;;;;14.27;6.03;;;0.90;99.90;;;;;;6164602;23;20254;-77
2022/12/12 11:18:39;;;;;;;14.17;6.50;;;1.00;99.90;;;;;;6165303;23;20173;-79
2022/12/12 11:21:10;;;;;;;15.53;6.70;;;1.00;99.90;;;;;;6215837;23;20616;-81
2022/12/12 11:23:51;;;;;;;13.37;6.60;;;0.90;99.90;;;;;;6214132;23;20604;-76
2022/12/12 11:26:20;;;;;;;14.97;7.40;;;0.90;99.90;;;;;;6187927;23;20563;-74
2022/12/12 11:28:56;;;;;;;15.87;7.97;;;0.90;99.90;;;;;;6215223;23;20616;-74
2022/12/12 11:31:27;;;;;;;14.43;7.67;;;0.90;99.90;;;;;;6186879;23;20200;-73
2022/12/12 11:33:57;;;;;;;16.57;7.80;;;0.90;99.90;;;;;;6213378;23;20177;-75
2022/12/12 11:36:40;;;;;;;13.90;7.60;;;0.80;99.90;;;;;;6188762;23;20167;-78
2022/12/12 11:39:20;;;;;;;18.63;8.03;;;0.60;99.90;;;;;;6165979;23;20171;-78
2022/12/12 11:42:15;;;;;;;17.73;8.07;;;0.70;99.90;;;;;;6197591;23;20172;-77
2022/12/12 11:44:44;;;;;;;15.93;6.83;;;0.80;99.90;;;;;;6167173;23;20174;-81
2022/12/12 11:47:17;;;;;;;15.17;8.03;;;0.70;99.90;;;;;;6194744;23;20171;-76
2022/12/12 11:49:52;;;;;;;13.00;7.27;;;0.80;99.90;;;;;;6215456;23;20171;-77
2022/12/12 11:52:31;;;;;;;17.20;7.93;;;0.70;99.90;;;;;;6187635;23;20201;-75
2022/12/12 11:54:59;;;;;;;17.37;7.40;;;0.60;99.90;;;;;;6187795;23;20626;-78
2022/12/12 11:57:30;;;;;;;15.57;7.77;;;0.60;99.90;;;;;;6188193;23;20494;-76
2022/12/12 12:00:06;;;;;;;19.93;8.03;;;0.60;99.90;;;;;;6189094;23;20212;-75
2022/12/12 12:02:54;;;;;;;15.23;7.63;;;0.50;99.90;;;;;;6188602;23;20183;-79
2022/12/12 12:05:35;;;;;;;15.13;7.37;;;0.50;99.90;;;;;;6215567;23;20258;-80
2022/12/12 12:08:15;;;;;;;16.87;7.83;;;0.50;99.90;;;;;;6164351;23;20253;-83
2022/12/12 12:10:45;;;;;;;18.13;7.80;;;0.50;99.90;;;;;;6190485;23;20198;-74
2022/12/12 12:13:40;;;;;;;16.87;7.83;;;0.50;99.90;;;;;;6190991;23;20197;-76
2022/12/12 12:16:31;;;;;;;18.43;7.53;;;0.50;99.90;;;;;;6165485;23;20286;-78
2022/12/12 12:19:13;;;;;;;17.50;8.37;;;0.30;99.90;;;;;;6218483;23;20430;-74
2022/12/12 12:21:59;;;;;;;17.23;8.23;;;0.30;99.90;;;;;;6190531;23;20545;-93
2022/12/12 12:24:48;;;;;;;15.87;7.80;;;0.30;99.90;;;;;;6173729;23;20181;-96
2022/12/12 12:27:30;;;;;;;16.83;8.10;;;0.30;99.90;;;;;;6236661;23;20183;-82
2022/12/12 12:30:42;;;;;;;23.33;8.53;;;0.40;99.90;;;;;;6198416;23;20158;-96
2022/12/12 12:33:38;;;;;;;15.17;7.80;;;0.40;99.90;;;;;;6120320;23;20286;-87
2022/12/12 12:36:27;;;;;;;17.03;8.67;;;0.40;99.90;;;;;;6091207;23;20177;-90
2022/12/12 12:39:13;;;;;;;18.57;8.90;;;0.40;99.90;;;;;;6131252;23;20250;-78
2022/12/12 12:42:19;;;;;;;17.73;8.37;;;0.40;99.90;;;;;;6130834;23;20211;-82
2022/12/12 12:44:51;;;;;;;17.23;8.37;;;0.40;99.90;;;;;;6131239;23;20603;-82
2022/12/12 12:47:21;;;;;;;16.53;8.77;;;0.40;99.90;;;;;;6130854;23;20259;-80
2022/12/12 12:50:02;;;;;;;19.57;9.30;;;0.40;99.90;;;;;;6155005;23;20173;-83
2022/12/12 12:52:36;;;;;;;19.17;8.97;;;0.50;99.90;;;;;;6130419;23;20196;-82
2022/12/12 12:55:13;;;;;;;19.30;9.00;;;0.50;99.90;;;;;;6129587;23;20294;-84
2022/12/12 12:57:46;;;;;;;18.97;9.03;;;0.40;99.90;;;;;;6130804;23;20267;-85
2022/12/12 13:00:15;;;;;;;16.10;9.07;;;0.50;99.90;;;;;;6130376;23;20183;-83
2022/12/12 13:03:00;;;;;;;20.27;9.13;;;0.40;99.90;;;;;;6130468;23;20209;-83
2022/12/12 13:05:39;;;;;;;15.97;9.03;;;0.40;99.90;;;;;;6217498;23;20165;-82
2022/12/12 13:08:26;;;;;;;18.97;9.47;;;0.40;99.90;;;;;;6217700;23;20167;-84
2022/12/12 13:10:58;;;;;;;18.73;9.87;;;0.30;99.90;;;;;;6217365;23;20261;-81
2022/12/12 13:13:35;;;;;;;17.93;9.57;;;0.40;99.90;;;;;;6217497;23;20194;-81
2022/12/12 13:16:16;;;;;;;18.23;9.07;;;0.40;99.90;;;;;;6190477;23;20579;-82
2022/12/12 13:18:46;;;;;;;20.10;8.93;;;0.40;99.90;;;;;;6217608;23;20189;-80
2022/12/12 13:21:34;;;;;;;19.67;8.97;;;0.50;99.90;;;;;;6189854;23;20174;-79
2022/12/12 13:24:20;;;;;;;14.73;8.53;;;0.40;99.90;;;;;;6190253;23;20235;-79
2022/12/12 13:27:46;;;;;;;18.03;8.73;;;0.40;99.90;;;;;;6166946;23;20181;-79
2022/12/12 13:30:29;;;;;;;16.97;8.87;;;0.40;99.90;;;;;;6125077;23;20258;-82
2022/12/12 13:33:19;;;;;;;18.87;10.57;;;0.30;99.90;;;;;;6101364;23;20212;-79